sensor_id;sensor_type;location;lat;lon;timestamp;pressure;altitude;pressure_sealevel;temperature;humidity
22651;BME280;11492;42.646;23.400;2022-10-16T00:01:15;95689.38;;;10.65;70.63
22651;BME280;11492;42.646;23.400;2022-10-16T00:03:42;95687.44;;;10.44;71.48
22651;BME280;11492;42.646;23.400;2022-10-16T00:06:08;95693.88;;;10.16;72.69
22651;BME280;11492;42.646;23.400;2022-10-16T00:08:35;95692.09;;;10.09;72.66
22651;BME280;11492;42.646;23.400;2022-10-16T00:11:03;95698.06;;;10.01;73.31
22651;BME280;11492;42.646;23.400;2022-10-16T00:13:29;95696.75;;;9.97;73.66
22651;BME280;11492;42.646;23.400;2022-10-16T00:15:57;95688.38;;;9.96;74.01
22651;BME280;11492;42.646;23.400;2022-10-16T00:18:23;95693.88;;;10.00;73.27
22651;BME280;11492;42.646;23.400;2022-10-16T00:20:48;95690.81;;;10.13;72.56
22651;BME280;11492;42.646;23.400;2022-10-16T00:23:13;95705.16;;;10.23;72.36
22651;BME280;11492;42.646;23.400;2022-10-16T00:25:39;95700.84;;;10.31;71.66
22651;BME280;11492;42.646;23.400;2022-10-16T00:28:04;95701.81;;;10.38;71.77
22651;BME280;11492;42.646;23.400;2022-10-16T00:30:30;95699.06;;;10.47;70.49
22651;BME280;11492;42.646;23.400;2022-10-16T00:32:55;95710.03;;;10.49;70.88
22651;BME280;11492;42.646;23.400;2022-10-16T00:35:21;95709.25;;;10.41;70.73
22651;BME280;11492;42.646;23.400;2022-10-16T00:37:47;95716.00;;;10.50;70.22
22651;BME280;11492;42.646;23.400;2022-10-16T00:40:12;95715.06;;;10.51;70.04
22651;BME280;11492;42.646;23.400;2022-10-16T00:42:37;95716.50;;;10.46;70.35
22651;BME280;11492;42.646;23.400;2022-10-16T00:45:03;95710.84;;;10.42;70.95
22651;BME280;11492;42.646;23.400;2022-10-16T00:47:33;95711.00;;;10.41;70.22
22651;BME280;11492;42.646;23.400;2022-10-16T00:52:30;95710.03;;;10.34;71.18
22651;BME280;11492;42.646;23.400;2022-10-16T00:54:56;95712.78;;;10.32;71.17
22651;BME280;11492;42.646;23.400;2022-10-16T00:57:22;95708.88;;;10.28;71.02
22651;BME280;11492;42.646;23.400;2022-10-16T00:59:48;95712.25;;;10.13;71.80
22651;BME280;11492;42.646;23.400;2022-10-16T01:02:14;95718.22;;;10.14;72.04
22651;BME280;11492;42.646;23.400;2022-10-16T01:04:49;95720.31;;;10.10;71.54
22651;BME280;11492;42.646;23.400;2022-10-16T01:10:35;95720.47;;;10.01;71.88
22651;BME280;11492;42.646;23.400;2022-10-16T01:13:10;95728.16;;;9.93;72.52
22651;BME280;11492;42.646;23.400;2022-10-16T01:15:56;95725.34;;;9.71;73.16
22651;BME280;11492;42.646;23.400;2022-10-16T01:18:34;95727.34;;;9.85;73.03
22651;BME280;11492;42.646;23.400;2022-10-16T01:21:03;95724.06;;;9.83;72.49
22651;BME280;11492;42.646;23.400;2022-10-16T01:28:42;95713.75;;;9.75;72.51
22651;BME280;11492;42.646;23.400;2022-10-16T01:31:15;95709.88;;;9.71;72.43
22651;BME280;11492;42.646;23.400;2022-10-16T01:33:46;95709.84;;;9.63;72.61
22651;BME280;11492;42.646;23.400;2022-10-16T01:36:21;95711.13;;;9.59;72.49
22651;BME280;11492;42.646;23.400;2022-10-16T01:38:52;95708.84;;;9.56;72.56
22651;BME280;11492;42.646;23.400;2022-10-16T01:41:25;95706.41;;;9.47;72.61
22651;BME280;11492;42.646;23.400;2022-10-16T01:44:04;95710.72;;;9.39;73.48
22651;BME280;11492;42.646;23.400;2022-10-16T01:46:31;95710.06;;;9.37;74.07
22651;BME280;11492;42.646;23.400;2022-10-16T01:49:00;95711.31;;;9.33;73.98
22651;BME280;11492;42.646;23.400;2022-10-16T01:51:28;95715.88;;;9.39;73.62
22651;BME280;11492;42.646;23.400;2022-10-16T01:53:56;95726.50;;;9.44;73.85
22651;BME280;11492;42.646;23.400;2022-10-16T01:56:25;95728.41;;;9.42;72.96
22651;BME280;11492;42.646;23.400;2022-10-16T01:59:18;95720.03;;;9.40;73.49
22651;BME280;11492;42.646;23.400;2022-10-16T02:01:50;95719.75;;;9.43;73.45
22651;BME280;11492;42.646;23.400;2022-10-16T02:04:22;95726.50;;;9.44;73.31
22651;BME280;11492;42.646;23.400;2022-10-16T02:06:48;95728.41;;;9.42;72.79
22651;BME280;11492;42.646;23.400;2022-10-16T02:09:14;95727.63;;;9.41;72.85
22651;BME280;11492;42.646;23.400;2022-10-16T02:11:42;95728.75;;;9.39;73.03
22651;BME280;11492;42.646;23.400;2022-10-16T02:14:08;95736.50;;;9.46;72.73
22651;BME280;11492;42.646;23.400;2022-10-16T02:16:40;95737.44;;;9.38;72.82
22651;BME280;11492;42.646;23.400;2022-10-16T02:19:06;95735.50;;;9.40;72.56
22651;BME280;11492;42.646;23.400;2022-10-16T02:21:43;95740.72;;;9.47;72.81
22651;BME280;11492;42.646;23.400;2022-10-16T02:24:16;95744.41;;;9.45;73.07
22651;BME280;11492;42.646;23.400;2022-10-16T02:29:39;95749.25;;;9.48;73.07
22651;BME280;11492;42.646;23.400;2022-10-16T02:32:07;95748.44;;;9.47;73.19
22651;BME280;11492;42.646;23.400;2022-10-16T02:34:36;95746.50;;;9.49;73.55
22651;BME280;11492;42.646;23.400;2022-10-16T02:37:04;95747.47;;;9.48;73.29
22651;BME280;11492;42.646;23.400;2022-10-16T02:39:30;95752.19;;;9.53;73.27
22651;BME280;11492;42.646;23.400;2022-10-16T02:41:56;95751.06;;;9.55;73.32
22651;BME280;11492;42.646;23.400;2022-10-16T02:44:22;95742.50;;;9.55;72.75
22651;BME280;11492;42.646;23.400;2022-10-16T02:46:47;95755.91;;;9.58;73.00
22651;BME280;11492;42.646;23.400;2022-10-16T02:49:12;95749.94;;;9.58;73.07
22651;BME280;11492;42.646;23.400;2022-10-16T02:51:38;95756.38;;;9.54;72.84
22651;BME280;11492;42.646;23.400;2022-10-16T02:54:03;95752.47;;;9.50;73.48
22651;BME280;11492;42.646;23.400;2022-10-16T02:56:29;95761.00;;;9.50;73.27
22651;BME280;11492;42.646;23.400;2022-10-16T02:58:55;95764.72;;;9.48;73.17
22651;BME280;11492;42.646;23.400;2022-10-16T03:01:21;95762.09;;;9.40;72.97
22651;BME280;11492;42.646;23.400;2022-10-16T03:03:46;95768.38;;;9.38;73.71
22651;BME280;11492;42.646;23.400;2022-10-16T03:06:11;95773.53;;;9.38;73.35
22651;BME280;11492;42.646;23.400;2022-10-16T03:08:37;95765.78;;;9.38;73.59
22651;BME280;11492;42.646;23.400;2022-10-16T03:11:02;95771.75;;;9.38;73.27
22651;BME280;11492;42.646;23.400;2022-10-16T03:13:28;95771.69;;;9.30;73.53
22651;BME280;11492;42.646;23.400;2022-10-16T03:15:53;95763.59;;;9.25;73.26
22651;BME280;11492;42.646;23.400;2022-10-16T03:18:18;95775.31;;;9.20;73.29
22651;BME280;11492;42.646;23.400;2022-10-16T03:20:44;95785.97;;;9.17;73.33
22651;BME280;11492;42.646;23.400;2022-10-16T03:23:10;95780.09;;;9.07;73.66
22651;BME280;11492;42.646;23.400;2022-10-16T03:25:35;95785.13;;;8.92;74.67
22651;BME280;11492;42.646;23.400;2022-10-16T03:28:01;95787.63;;;8.84;74.51
22651;BME280;11492;42.646;23.400;2022-10-16T03:30:26;95770.66;;;8.73;74.80
22651;BME280;11492;42.646;23.400;2022-10-16T03:32:52;95788.31;;;8.69;75.12
22651;BME280;11492;42.646;23.400;2022-10-16T03:35:20;95786.75;;;8.58;75.49
22651;BME280;11492;42.646;23.400;2022-10-16T03:37:45;95778.69;;;8.53;75.68
22651;BME280;11492;42.646;23.400;2022-10-16T03:40:11;95779.28;;;8.47;75.71
22651;BME280;11492;42.646;23.400;2022-10-16T03:42:36;95787.94;;;8.46;76.17
22651;BME280;11492;42.646;23.400;2022-10-16T03:45:02;95787.84;;;8.21;77.88
22651;BME280;11492;42.646;23.400;2022-10-16T03:47:28;95784.25;;;8.15;77.61
22651;BME280;11492;42.646;23.400;2022-10-16T03:49:53;95782.94;;;8.28;77.42
22651;BME280;11492;42.646;23.400;2022-10-16T03:52:18;95774.56;;;8.26;76.86
22651;BME280;11492;42.646;23.400;2022-10-16T03:54:44;95778.91;;;8.25;77.14
22651;BME280;11492;42.646;23.400;2022-10-16T03:57:09;95780.53;;;8.26;76.76
22651;BME280;11492;42.646;23.400;2022-10-16T03:59:35;95770.81;;;8.21;76.70
22651;BME280;11492;42.646;23.400;2022-10-16T04:02:00;95780.72;;;8.16;77.44
22651;BME280;11492;42.646;23.400;2022-10-16T04:04:25;95778.97;;;8.16;77.23
22651;BME280;11492;42.646;23.400;2022-10-16T04:06:51;95784.41;;;8.13;77.62
22651;BME280;11492;42.646;23.400;2022-10-16T04:09:17;95774.41;;;8.10;77.88
22651;BME280;11492;42.646;23.400;2022-10-16T04:11:42;95781.03;;;8.13;77.94
22651;BME280;11492;42.646;23.400;2022-10-16T04:14:08;95777.78;;;8.11;77.99
22651;BME280;11492;42.646;23.400;2022-10-16T04:16:33;95784.41;;;8.13;78.12
22651;BME280;11492;42.646;23.400;2022-10-16T04:18:58;95777.28;;;8.07;77.81
22651;BME280;11492;42.646;23.400;2022-10-16T04:21:24;95785.50;;;8.11;78.11
22651;BME280;11492;42.646;23.400;2022-10-16T04:23:49;95779.84;;;8.07;77.95
22651;BME280;11492;42.646;23.400;2022-10-16T04:26:15;95776.88;;;8.02;78.13
22651;BME280;11492;42.646;23.400;2022-10-16T04:28:40;95785.34;;;7.86;78.58
22651;BME280;11492;42.646;23.400;2022-10-16T04:31:06;95789.03;;;7.83;78.78
22651;BME280;11492;42.646;23.400;2022-10-16T04:33:32;95782.28;;;7.82;78.97
22651;BME280;11492;42.646;23.400;2022-10-16T04:35:59;95784.84;;;7.82;78.92
22651;BME280;11492;42.646;23.400;2022-10-16T04:38:25;95785.47;;;7.67;78.68
22651;BME280;11492;42.646;23.400;2022-10-16T04:40:51;95785.47;;;7.67;78.80
22651;BME280;11492;42.646;23.400;2022-10-16T04:43:17;95805.44;;;7.73;78.63
22651;BME280;11492;42.646;23.400;2022-10-16T04:45:42;95806.78;;;7.77;78.47
22651;BME280;11492;42.646;23.400;2022-10-16T04:48:07;95805.47;;;7.64;79.61
22651;BME280;11492;42.646;23.400;2022-10-16T04:50:33;95806.00;;;7.67;78.79
22651;BME280;11492;42.646;23.400;2022-10-16T04:52:58;95801.66;;;7.77;78.29
22651;BME280;11492;42.646;23.400;2022-10-16T04:55:24;95802.69;;;7.84;78.13
22651;BME280;11492;42.646;23.400;2022-10-16T04:57:49;95814.09;;;7.98;77.50
22651;BME280;11492;42.646;23.400;2022-10-16T05:00:15;95813.16;;;7.99;77.15
22651;BME280;11492;42.646;23.400;2022-10-16T05:02:40;95811.00;;;8.04;77.47
22651;BME280;11492;42.646;23.400;2022-10-16T05:05:06;95823.91;;;8.12;76.57
22651;BME280;11492;42.646;23.400;2022-10-16T05:07:32;95820.41;;;8.13;76.55
22651;BME280;11492;42.646;23.400;2022-10-16T05:09:57;95832.31;;;8.14;77.35
22651;BME280;11492;42.646;23.400;2022-10-16T05:12:23;95828.19;;;8.21;76.66
22651;BME280;11492;42.646;23.400;2022-10-16T05:14:48;95835.22;;;8.28;76.73
22651;BME280;11492;42.646;23.400;2022-10-16T05:17:13;95835.88;;;8.30;76.67
22651;BME280;11492;42.646;23.400;2022-10-16T05:19:39;95839.09;;;8.32;76.31
22651;BME280;11492;42.646;23.400;2022-10-16T05:22:05;95845.56;;;8.36;76.60
22651;BME280;11492;42.646;23.400;2022-10-16T05:24:30;95840.22;;;8.47;76.29
22651;BME280;11492;42.646;23.400;2022-10-16T05:26:55;95843.75;;;8.46;75.97
22651;BME280;11492;42.646;23.400;2022-10-16T05:29:21;95830.34;;;8.43;76.17
22651;BME280;11492;42.646;23.400;2022-10-16T05:31:50;95844.94;;;8.51;76.06
22651;BME280;11492;42.646;23.400;2022-10-16T05:34:15;95842.09;;;8.54;76.11
22651;BME280;11492;42.646;23.400;2022-10-16T05:36:41;95845.03;;;8.59;75.79
22651;BME280;11492;42.646;23.400;2022-10-16T05:39:06;95846.63;;;8.60;75.66
22651;BME280;11492;42.646;23.400;2022-10-16T05:41:31;95836.03;;;8.63;75.59
22651;BME280;11492;42.646;23.400;2022-10-16T05:43:57;95839.28;;;8.65;75.40
22651;BME280;11492;42.646;23.400;2022-10-16T05:46:22;95850.06;;;8.69;75.48
22651;BME280;11492;42.646;23.400;2022-10-16T05:48:48;95850.06;;;8.69;76.16
22651;BME280;11492;42.646;23.400;2022-10-16T05:51:14;95852.22;;;8.73;76.08
22651;BME280;11492;42.646;23.400;2022-10-16T05:53:40;95851.13;;;8.75;75.84
22651;BME280;11492;42.646;23.400;2022-10-16T05:56:07;95854.78;;;8.73;76.12
22651;BME280;11492;42.646;23.400;2022-10-16T05:58:35;95865.31;;;8.79;76.46
22651;BME280;11492;42.646;23.400;2022-10-16T06:01:07;95864.22;;;8.82;75.60
22651;BME280;11492;42.646;23.400;2022-10-16T06:03:33;95868.72;;;8.80;76.30
22651;BME280;11492;42.646;23.400;2022-10-16T06:05:59;95866.78;;;8.82;75.70
22651;BME280;11492;42.646;23.400;2022-10-16T06:08:24;95865.09;;;8.90;75.81
22651;BME280;11492;42.646;23.400;2022-10-16T06:11:04;95873.31;;;8.94;75.83
22651;BME280;11492;42.646;23.400;2022-10-16T06:13:30;95880.16;;;9.02;76.19
22651;BME280;11492;42.646;23.400;2022-10-16T06:15:58;95872.81;;;9.07;76.60
22651;BME280;11492;42.646;23.400;2022-10-16T06:18:24;95880.31;;;9.18;75.43
22651;BME280;11492;42.646;23.400;2022-10-16T06:20:49;95885.75;;;9.32;74.69
22651;BME280;11492;42.646;23.400;2022-10-16T06:23:15;95884.81;;;9.41;74.03
22651;BME280;11492;42.646;23.400;2022-10-16T06:25:40;95891.13;;;9.46;74.22
22651;BME280;11492;42.646;23.400;2022-10-16T06:28:05;95892.03;;;9.55;74.20
22651;BME280;11492;42.646;23.400;2022-10-16T06:30:31;95897.72;;;9.66;73.54
22651;BME280;11492;42.646;23.400;2022-10-16T06:32:56;95893.09;;;9.70;73.41
22651;BME280;11492;42.646;23.400;2022-10-16T06:35:22;95896.03;;;9.74;72.85
22651;BME280;11492;42.646;23.400;2022-10-16T06:37:47;95892.41;;;9.85;72.50
22651;BME280;11492;42.646;23.400;2022-10-16T06:40:13;95901.50;;;9.96;72.30
22651;BME280;11492;42.646;23.400;2022-10-16T06:42:39;95895.44;;;10.05;71.91
22651;BME280;11492;42.646;23.400;2022-10-16T06:45:05;95893.03;;;10.12;71.64
22651;BME280;11492;42.646;23.400;2022-10-16T06:47:31;95905.50;;;10.24;71.55
22651;BME280;11492;42.646;23.400;2022-10-16T06:49:56;95909.78;;;10.41;71.92
22651;BME280;11492;42.646;23.400;2022-10-16T06:52:21;95911.28;;;10.51;69.57
22651;BME280;11492;42.646;23.400;2022-10-16T06:54:47;95911.28;;;10.59;70.12
22651;BME280;11492;42.646;23.400;2022-10-16T06:57:12;95919.19;;;10.65;69.83
22651;BME280;11492;42.646;23.400;2022-10-16T06:59:38;95917.78;;;10.70;69.38
22651;BME280;11492;42.646;23.400;2022-10-16T07:02:03;95922.16;;;10.78;69.99
22651;BME280;11492;42.646;23.400;2022-10-16T07:04:28;95926.06;;;10.90;69.06
22651;BME280;11492;42.646;23.400;2022-10-16T07:06:56;95922.66;;;10.97;68.48
22651;BME280;11492;42.646;23.400;2022-10-16T07:09:22;95922.06;;;11.03;68.61
22651;BME280;11492;42.646;23.400;2022-10-16T07:11:47;95919.47;;;11.11;68.16
22651;BME280;11492;42.646;23.400;2022-10-16T07:14:18;95921.28;;;11.18;68.64
22651;BME280;11492;42.646;23.400;2022-10-16T07:16:44;95928.38;;;11.24;68.23
22651;BME280;11492;42.646;23.400;2022-10-16T07:19:09;95924.50;;;11.28;67.81
22651;BME280;11492;42.646;23.400;2022-10-16T07:21:37;95933.41;;;11.33;68.04
22651;BME280;11492;42.646;23.400;2022-10-16T07:24:06;95927.47;;;11.41;68.27
22651;BME280;11492;42.646;23.400;2022-10-16T07:26:34;95926.00;;;11.54;68.21
22651;BME280;11492;42.646;23.400;2022-10-16T07:29:00;95923.75;;;11.67;67.95
22651;BME280;11492;42.646;23.400;2022-10-16T07:31:26;95935.84;;;11.82;66.85
22651;BME280;11492;42.646;23.400;2022-10-16T07:33:52;95928.41;;;11.87;66.47
22651;BME280;11492;42.646;23.400;2022-10-16T07:36:20;95924.50;;;11.98;66.98
22651;BME280;11492;42.646;23.400;2022-10-16T07:38:46;95929.69;;;12.06;67.05
22651;BME280;11492;42.646;23.400;2022-10-16T07:41:17;95940.13;;;12.20;65.79
22651;BME280;11492;42.646;23.400;2022-10-16T07:43:51;95933.34;;;12.27;65.65
22651;BME280;11492;42.646;23.400;2022-10-16T07:46:17;95932.53;;;12.27;65.80
22651;BME280;11492;42.646;23.400;2022-10-16T07:48:44;95925.66;;;12.42;65.96
22651;BME280;11492;42.646;23.400;2022-10-16T07:51:11;95933.38;;;12.57;65.70
22651;BME280;11492;42.646;23.400;2022-10-16T07:53:37;95935.13;;;12.72;65.62
22651;BME280;11492;42.646;23.400;2022-10-16T07:56:05;95930.03;;;12.87;64.64
22651;BME280;11492;42.646;23.400;2022-10-16T07:58:31;95933.44;;;13.17;64.74
22651;BME280;11492;42.646;23.400;2022-10-16T08:00:57;95925.59;;;15.05;58.30
22651;BME280;11492;42.646;23.400;2022-10-16T08:03:23;95916.53;;;17.63;50.96
22651;BME280;11492;42.646;23.400;2022-10-16T08:05:49;95918.06;;;19.77;46.43
22651;BME280;11492;42.646;23.400;2022-10-16T08:08:16;95921.75;;;21.54;41.30
22651;BME280;11492;42.646;23.400;2022-10-16T08:10:42;95923.09;;;23.16;38.08
22651;BME280;11492;42.646;23.400;2022-10-16T08:13:07;95918.66;;;23.99;35.84
22651;BME280;11492;42.646;23.400;2022-10-16T08:15:33;95920.22;;;24.92;34.10
22651;BME280;11492;42.646;23.400;2022-10-16T08:18:00;95920.34;;;25.86;32.87
22651;BME280;11492;42.646;23.400;2022-10-16T08:20:27;95917.00;;;26.83;31.11
22651;BME280;11492;42.646;23.400;2022-10-16T08:22:53;95914.75;;;27.11;30.23
22651;BME280;11492;42.646;23.400;2022-10-16T08:25:19;95909.44;;;27.57;29.63
22651;BME280;11492;42.646;23.400;2022-10-16T08:27:45;95904.41;;;27.60;29.20
22651;BME280;11492;42.646;23.400;2022-10-16T08:30:11;95910.75;;;27.54;29.09
22651;BME280;11492;42.646;23.400;2022-10-16T08:32:36;95905.34;;;28.00;28.44
22651;BME280;11492;42.646;23.400;2022-10-16T08:35:02;95911.16;;;27.97;28.16
22651;BME280;11492;42.646;23.400;2022-10-16T08:37:31;95914.66;;;28.22;28.27
22651;BME280;11492;42.646;23.400;2022-10-16T08:39:57;95909.88;;;28.34;27.30
22651;BME280;11492;42.646;23.400;2022-10-16T08:48:35;95913.59;;;28.13;27.41
22651;BME280;11492;42.646;23.400;2022-10-16T08:51:05;95915.97;;;28.00;27.69
22651;BME280;11492;42.646;23.400;2022-10-16T08:53:49;95910.38;;;27.92;27.04
22651;BME280;11492;42.646;23.400;2022-10-16T08:56:17;95914.66;;;28.07;27.43
22651;BME280;11492;42.646;23.400;2022-10-16T08:58:45;95920.78;;;28.23;27.23
22651;BME280;11492;42.646;23.400;2022-10-16T09:01:13;95918.13;;;28.37;26.30
22651;BME280;11492;42.646;23.400;2022-10-16T09:06:34;95920.84;;;28.52;26.03
22651;BME280;11492;42.646;23.400;2022-10-16T09:10:11;95924.22;;;28.08;26.23
22651;BME280;11492;42.646;23.400;2022-10-16T09:12:15;95915.41;;;27.93;26.73
22651;BME280;11492;42.646;23.400;2022-10-16T09:22:35;95900.78;;;26.80;27.40
22651;BME280;11492;42.646;23.400;2022-10-16T09:25:04;95916.22;;;27.29;27.20
22651;BME280;11492;42.646;23.400;2022-10-16T09:27:36;95910.25;;;27.67;26.75
22651;BME280;11492;42.646;23.400;2022-10-16T09:30:11;95916.25;;;28.13;25.65
22651;BME280;11492;42.646;23.400;2022-10-16T09:32:38;95917.31;;;28.12;25.09
22651;BME280;11492;42.646;23.400;2022-10-16T09:35:11;95905.94;;;28.41;24.92
22651;BME280;11492;42.646;23.400;2022-10-16T09:37:39;95905.13;;;28.60;25.00
22651;BME280;11492;42.646;23.400;2022-10-16T09:40:06;95911.00;;;28.67;24.39
22651;BME280;11492;42.646;23.400;2022-10-16T09:42:34;95904.59;;;28.63;24.33
22651;BME280;11492;42.646;23.400;2022-10-16T09:45:02;95906.19;;;28.50;24.47
22651;BME280;11492;42.646;23.400;2022-10-16T09:47:29;95903.53;;;28.64;24.97
22651;BME280;11492;42.646;23.400;2022-10-16T09:49:58;95896.50;;;29.22;24.29
22651;BME280;11492;42.646;23.400;2022-10-16T09:52:27;95896.44;;;29.42;24.04
22651;BME280;11492;42.646;23.400;2022-10-16T09:55:12;95896.84;;;29.01;24.00
22651;BME280;11492;42.646;23.400;2022-10-16T09:57:51;95894.69;;;29.13;24.20
22651;BME280;11492;42.646;23.400;2022-10-16T10:00:18;95886.84;;;29.51;23.89
22651;BME280;11492;42.646;23.400;2022-10-16T10:02:44;95898.81;;;29.53;24.05
22651;BME280;11492;42.646;23.400;2022-10-16T10:05:25;95892.53;;;29.25;24.12
22651;BME280;11492;42.646;23.400;2022-10-16T10:08:01;95891.50;;;29.83;23.51
22651;BME280;11492;42.646;23.400;2022-10-16T10:10:33;95881.59;;;30.31;23.07
22651;BME280;11492;42.646;23.400;2022-10-16T10:13:00;95874.19;;;30.84;22.76
22651;BME280;11492;42.646;23.400;2022-10-16T10:15:32;95870.59;;;30.98;23.05
22651;BME280;11492;42.646;23.400;2022-10-16T10:17:58;95869.91;;;30.60;22.46
22651;BME280;11492;42.646;23.400;2022-10-16T10:20:35;95872.56;;;30.22;23.12
22651;BME280;11492;42.646;23.400;2022-10-16T10:23:24;95863.75;;;29.84;23.17
22651;BME280;11492;42.646;23.400;2022-10-16T10:31:20;95866.00;;;30.05;22.88
22651;BME280;11492;42.646;23.400;2022-10-16T10:36:39;95861.00;;;30.36;21.84
22651;BME280;11492;42.646;23.400;2022-10-16T10:41:57;95864.00;;;31.83;20.99
22651;BME280;11492;42.646;23.400;2022-10-16T10:50:06;95846.84;;;33.54;18.66
22651;BME280;11492;42.646;23.400;2022-10-16T10:55:51;95846.97;;;32.60;18.76
22651;BME280;11492;42.646;23.400;2022-10-16T11:01:29;95839.09;;;33.39;18.54
22651;BME280;11492;42.646;23.400;2022-10-16T11:06:58;95841.97;;;33.16;17.72
22651;BME280;11492;42.646;23.400;2022-10-16T11:09:28;95830.75;;;33.41;16.91
22651;BME280;11492;42.646;23.400;2022-10-16T11:12:06;95834.13;;;33.60;16.89
22651;BME280;11492;42.646;23.400;2022-10-16T11:14:40;95830.44;;;34.38;16.59
22651;BME280;11492;42.646;23.400;2022-10-16T11:17:15;95832.22;;;34.43;16.95
22651;BME280;11492;42.646;23.400;2022-10-16T11:24:59;95822.19;;;34.78;17.22
22651;BME280;11492;42.646;23.400;2022-10-16T11:27:37;95823.25;;;35.37;17.00
22651;BME280;11492;42.646;23.400;2022-10-16T11:30:06;95821.03;;;36.11;16.37
22651;BME280;11492;42.646;23.400;2022-10-16T11:32:53;95814.31;;;36.92;16.13
22651;BME280;11492;42.646;23.400;2022-10-16T11:35:24;95816.44;;;36.61;16.20
22651;BME280;11492;42.646;23.400;2022-10-16T11:37:51;95824.97;;;36.71;16.62
22651;BME280;11492;42.646;23.400;2022-10-16T11:40:23;95817.47;;;36.93;15.51
22651;BME280;11492;42.646;23.400;2022-10-16T11:43:12;95811.66;;;37.28;16.36
22651;BME280;11492;42.646;23.400;2022-10-16T11:45:43;95809.47;;;37.14;16.47
22651;BME280;11492;42.646;23.400;2022-10-16T11:51:05;95824.81;;;36.76;15.99
22651;BME280;11492;42.646;23.400;2022-10-16T11:56:12;95830.53;;;36.58;16.46
22651;BME280;11492;42.646;23.400;2022-10-16T12:08:54;95812.91;;;36.77;15.45
22651;BME280;11492;42.646;23.400;2022-10-16T12:16:55;95808.31;;;38.28;14.85
22651;BME280;11492;42.646;23.400;2022-10-16T12:19:22;95815.03;;;39.06;15.07
22651;BME280;11492;42.646;23.400;2022-10-16T12:21:50;95813.59;;;39.32;14.66
22651;BME280;11492;42.646;23.400;2022-10-16T12:26:57;95809.41;;;38.68;14.86
22651;BME280;11492;42.646;23.400;2022-10-16T12:29:41;95812.34;;;38.43;15.29
22651;BME280;11492;42.646;23.400;2022-10-16T12:32:29;95816.47;;;37.80;15.37
22651;BME280;11492;42.646;23.400;2022-10-16T12:34:56;95813.81;;;37.71;15.47
22651;BME280;11492;42.646;23.400;2022-10-16T12:37:35;95817.41;;;37.84;15.55
22651;BME280;11492;42.646;23.400;2022-10-16T12:40:23;95809.66;;;38.22;15.06
22651;BME280;11492;42.646;23.400;2022-10-16T12:42:50;95812.31;;;38.11;15.17
22651;BME280;11492;42.646;23.400;2022-10-16T12:45:34;95811.47;;;37.90;14.92
22651;BME280;11492;42.646;23.400;2022-10-16T12:48:02;95808.19;;;38.05;15.45
22651;BME280;11492;42.646;23.400;2022-10-16T12:50:34;95816.69;;;38.55;15.20
22651;BME280;11492;42.646;23.400;2022-10-16T12:53:02;95816.44;;;38.28;15.38
22651;BME280;11492;42.646;23.400;2022-10-16T12:55:40;95814.72;;;39.08;15.36
22651;BME280;11492;42.646;23.400;2022-10-16T12:58:31;95813.75;;;39.83;14.79
22651;BME280;11492;42.646;23.400;2022-10-16T13:01:31;95823.06;;;39.15;14.94
22651;BME280;11492;42.646;23.400;2022-10-16T13:04:05;95823.19;;;37.74;15.77
22651;BME280;11492;42.646;23.400;2022-10-16T13:22:45;95819.44;;;27.60;23.90
22651;BME280;11492;42.646;23.400;2022-10-16T13:28:02;95818.28;;;26.36;25.04
22651;BME280;11492;42.646;23.400;2022-10-16T13:30:31;95825.16;;;26.01;25.04
22651;BME280;11492;42.646;23.400;2022-10-16T13:35:30;95823.19;;;25.40;26.58
22651;BME280;11492;42.646;23.400;2022-10-16T13:38:15;95825.81;;;25.14;26.89
22651;BME280;11492;42.646;23.400;2022-10-16T13:41:14;95824.09;;;24.82;26.96
22651;BME280;11492;42.646;23.400;2022-10-16T13:43:43;95833.09;;;24.65;27.41
22651;BME280;11492;42.646;23.400;2022-10-16T13:46:17;95835.78;;;24.49;27.57
22651;BME280;11492;42.646;23.400;2022-10-16T13:48:43;95829.59;;;24.22;28.37
22651;BME280;11492;42.646;23.400;2022-10-16T13:51:14;95838.03;;;24.08;28.55
22651;BME280;11492;42.646;23.400;2022-10-16T13:53:41;95835.94;;;23.94;28.03
22651;BME280;11492;42.646;23.400;2022-10-16T13:56:10;95831.63;;;23.88;29.21
22651;BME280;11492;42.646;23.400;2022-10-16T13:58:36;95836.56;;;23.84;29.87
22651;BME280;11492;42.646;23.400;2022-10-16T14:01:25;95836.09;;;23.87;29.35
22651;BME280;11492;42.646;23.400;2022-10-16T14:03:49;95838.38;;;23.51;29.74
22651;BME280;11492;42.646;23.400;2022-10-16T14:06:18;95840.53;;;23.54;29.36
22651;BME280;11492;42.646;23.400;2022-10-16T14:09:00;95838.13;;;23.53;29.15
22651;BME280;11492;42.646;23.400;2022-10-16T14:11:26;95846.19;;;23.47;29.25
22651;BME280;11492;42.646;23.400;2022-10-16T14:13:53;95854.34;;;23.34;28.81
22651;BME280;11492;42.646;23.400;2022-10-16T14:16:25;95849.28;;;23.16;29.31
22651;BME280;11492;42.646;23.400;2022-10-16T14:19:17;95855.94;;;23.07;29.00
22651;BME280;11492;42.646;23.400;2022-10-16T14:21:44;95858.66;;;22.85;28.85
22651;BME280;11492;42.646;23.400;2022-10-16T14:24:13;95861.06;;;22.64;28.93
22651;BME280;11492;42.646;23.400;2022-10-16T14:26:45;95862.09;;;22.51;29.89
22651;BME280;11492;42.646;23.400;2022-10-16T14:29:17;95864.84;;;22.34;29.69
22651;BME280;11492;42.646;23.400;2022-10-16T14:31:55;95863.25;;;22.10;29.29
22651;BME280;11492;42.646;23.400;2022-10-16T14:34:33;95861.50;;;22.04;29.80
22651;BME280;11492;42.646;23.400;2022-10-16T14:37:06;95857.34;;;21.97;29.89
22651;BME280;11492;42.646;23.400;2022-10-16T14:39:34;95860.06;;;21.79;30.36
22651;BME280;11492;42.646;23.400;2022-10-16T14:42:00;95860.94;;;21.62;30.62
22651;BME280;11492;42.646;23.400;2022-10-16T14:44:32;95868.31;;;21.43;30.53
22651;BME280;11492;42.646;23.400;2022-10-16T14:47:06;95872.41;;;21.21;31.37
22651;BME280;11492;42.646;23.400;2022-10-16T14:49:33;95874.13;;;20.98;31.79
22651;BME280;11492;42.646;23.400;2022-10-16T14:51:58;95881.94;;;20.69;32.17